Time;durP1;ratioP1;P1;durP2;ratioP2;P2;SDS_P1;SDS_P2;PMS_P1;PMS_P2;Temp;Humidity;BMP_temperature;BMP_pressure;BME280_temperature;BME280_humidity;BME280_pressure;Samples;Min_cycle;Max_cycle;Signal;HPM_P1;HPM_P2
2023/09/06 00:00:40;;;;;;;;;;;;;;;19.15;75.37;100071.56;3166740;28;19927;-71
2023/09/06 00:02:12;;;;;;;;;;;;;;;19.18;75.22;100073.97;3170420;28;19997;-72
2023/09/06 00:03:44;;;;;;;;;;;;;;;19.21;75.19;100068.44;3170351;28;20019;-73
2023/09/06 00:05:14;;;;;;;;;;;;;;;19.22;74.94;100065.69;3166392;28;19924;-73
2023/09/06 00:06:46;;;;;;;;;;;;;;;19.22;75.03;100063.03;3160211;28;20464;-72
2023/09/06 00:08:17;;;;;;;;;;;;;;;19.20;75.07;100066.78;3167135;28;19924;-72
2023/09/06 00:09:48;;;;;;;;;;;;;;;19.19;74.90;100065.09;3159647;28;19924;-72
2023/09/06 00:11:19;;;;;;;;;;;;;;;19.19;75.08;100071.19;3166372;28;19924;-72
2023/09/06 00:12:50;;;;;;;;;;;;;;;19.17;75.10;100067.84;3168980;28;19923;-72
2023/09/06 00:14:21;;;;;;;;;;;;;;;19.17;75.16;100070.50;3164355;28;20469;-72
2023/09/06 00:15:52;;;;;;;;;;;;;;;19.16;75.26;100071.44;3170435;28;20010;-72
2023/09/06 00:17:24;;;;;;;;;;;;;;;19.15;75.42;100076.84;3166049;28;20325;-72
2023/09/06 00:18:59;;;;;;;;;;;;;;;19.12;75.32;100070.00;3161759;28;19924;-72
2023/09/06 00:20:30;;;;;;;;;;;;;;;19.12;75.36;100072.63;3168902;27;19978;-72
2023/09/06 00:22:02;;;;;;;;;;;;;;;19.14;75.19;100067.22;3167290;28;19962;-72
2023/09/06 00:23:33;;;;;;;;;;;;;;;19.12;75.28;100070.00;3159746;28;20109;-72
2023/09/06 00:25:05;;;;;;;;;;;;;;;19.09;75.35;100063.16;3170173;28;19944;-72
2023/09/06 00:26:36;;;;;;;;;;;;;;;19.14;75.18;100068.09;3169770;28;20008;-72
2023/09/06 00:28:07;;;;;;;;;;;;;;;19.13;75.39;100066.38;3170455;28;19928;-72
2023/09/06 00:29:38;;;;;;;;;;;;;;;19.14;75.47;100068.09;3170398;28;20022;-72
2023/09/06 00:31:09;;;;;;;;;;;;;;;19.15;75.25;100063.66;3170188;28;19924;-72
2023/09/06 00:34:46;;;;;;;;;;;;;;;19.16;75.19;100054.75;3144945;28;19928;-71
2023/09/06 00:36:18;;;;;;;;;;;;;;;19.15;75.36;100058.38;3158460;28;19927;-71
2023/09/06 00:37:48;;;;;;;;;;;;;;;19.15;75.24;100064.47;3165979;28;20420;-71
2023/09/06 00:39:20;;;;;;;;;;;;;;;19.17;75.19;100057.28;3169548;28;19930;-71
2023/09/06 00:40:51;;;;;;;;;;;;;;;19.19;75.06;100055.34;3170276;28;19935;-71
2023/09/06 00:42:24;;;;;;;;;;;;;;;19.22;75.09;100060.41;3170029;28;19946;-71
2023/09/06 00:43:56;;;;;;;;;;;;;;;19.22;74.85;100056.91;3169972;28;19951;-72
2023/09/06 00:45:27;;;;;;;;;;;;;;;19.23;74.98;100056.81;3170259;28;20400;-73
2023/09/06 00:47:00;;;;;;;;;;;;;;;19.23;75.08;100056.81;3169902;28;19924;-73
2023/09/06 00:48:31;;;;;;;;;;;;;;;19.23;75.03;100051.53;3170124;28;20010;-74
2023/09/06 00:50:04;;;;;;;;;;;;;;;19.24;75.17;100049.72;3168576;28;19924;-73
2023/09/06 00:51:36;;;;;;;;;;;;;;;19.24;75.20;100052.38;3162825;28;20433;-73
2023/09/06 00:53:07;;;;;;;;;;;;;;;19.26;75.04;100055.75;3165490;28;19931;-73
2023/09/06 00:54:39;;;;;;;;;;;;;;;19.24;75.27;100047.94;3170035;28;20351;-73
2023/09/06 00:56:10;;;;;;;;;;;;;;;19.24;75.48;100045.28;3170087;28;19924;-73
2023/09/06 00:57:42;;;;;;;;;;;;;;;19.24;75.30;100047.09;3167778;28;20491;-73
2023/09/06 00:59:15;;;;;;;;;;;;;;;19.21;75.38;100045.53;3160814;28;19930;-73
2023/09/06 01:00:47;;;;;;;;;;;;;;;19.22;75.45;100044.56;3167445;28;19924;-72
2023/09/06 01:02:18;;;;;;;;;;;;;;;19.22;75.36;100041.09;3170644;28;20415;-73
2023/09/06 01:03:50;;;;;;;;;;;;;;;19.23;75.35;100050.69;3172811;28;19923;-73
2023/09/06 01:05:24;;;;;;;;;;;;;;;19.21;75.66;100045.53;3167939;28;20363;-73
2023/09/06 01:06:57;;;;;;;;;;;;;;;19.22;75.45;100049.00;3168929;28;19939;-74
2023/09/06 01:08:31;;;;;;;;;;;;;;;19.23;75.13;100045.41;3171298;28;20320;-74
2023/09/06 01:10:03;;;;;;;;;;;;;;;19.22;75.46;100049.84;3163460;28;19950;-74
2023/09/06 01:11:37;;;;;;;;;;;;;;;19.21;75.45;100047.34;3170296;28;19928;-74
2023/09/06 01:13:07;;;;;;;;;;;;;;;19.20;75.33;100043.84;3168844;28;19931;-73
2023/09/06 01:14:40;;;;;;;;;;;;;;;19.20;75.36;100041.22;3168920;28;19924;-73
2023/09/06 01:16:11;;;;;;;;;;;;;;;19.21;75.29;100042.06;3172723;28;20302;-73
2023/09/06 01:17:43;;;;;;;;;;;;;;;19.20;75.46;100035.94;3172342;28;19924;-71
2023/09/06 01:19:14;;;;;;;;;;;;;;;19.20;75.26;100035.94;3172927;28;20010;-72
2023/09/06 01:20:51;;;;;;;;;;;;;;;19.20;75.07;100030.66;3170243;28;19949;-72
2023/09/06 01:22:26;;;;;;;;;;;;;;;19.20;75.38;100041.22;3168073;28;19970;-72
2023/09/06 01:24:00;;;;;;;;;;;;;;;19.20;75.10;100032.47;3172158;28;19935;-72
2023/09/06 01:25:30;;;;;;;;;;;;;;;19.24;75.14;100041.81;3172322;28;19924;-72
2023/09/06 01:27:04;;;;;;;;;;;;;;;19.26;75.14;100043.38;3172106;28;19928;-74
2023/09/06 01:28:35;;;;;;;;;;;;;;;19.29;74.83;100045.78;3165620;28;19924;-73
2023/09/06 01:30:08;;;;;;;;;;;;;;;19.30;74.73;100043.97;3151744;28;20666;-74
2023/09/06 01:31:38;;;;;;;;;;;;;;;19.31;74.84;100046.50;3165473;28;19964;-73
2023/09/06 01:33:10;;;;;;;;;;;;;;;19.33;74.62;100051.66;3172021;28;20401;-74
2023/09/06 01:34:40;;;;;;;;;;;;;;;19.33;74.52;100043.75;3172563;28;19924;-74
2023/09/06 01:36:12;;;;;;;;;;;;;;;19.32;74.65;100037.63;3160573;28;19928;-74
2023/09/06 01:37:43;;;;;;;;;;;;;;;19.33;74.52;100035.81;3171284;28;20004;-75
2023/09/06 01:39:16;;;;;;;;;;;;;;;19.32;74.64;100042.91;3172107;28;20455;-74
2023/09/06 01:40:46;;;;;;;;;;;;;;;19.33;74.77;100038.47;3172051;28;19935;-74
2023/09/06 01:42:22;;;;;;;;;;;;;;;19.33;74.80;100041.94;3172815;28;20405;-75
2023/09/06 01:43:54;;;;;;;;;;;;;;;19.35;74.91;100043.63;3172519;28;20030;-72
2023/09/06 01:45:27;;;;;;;;;;;;;;;19.37;74.62;100039.06;3172106;28;20435;-72
2023/09/06 01:46:58;;;;;;;;;;;;;;;19.37;74.80;100042.53;3172047;28;19966;-72
2023/09/06 01:48:29;;;;;;;;;;;;;;;19.38;74.69;100032.81;3172395;28;19923;-73
2023/09/06 01:50:00;;;;;;;;;;;;;;;19.39;74.65;100031.84;3170796;28;20008;-72
2023/09/06 01:51:57;;;;;;;;;;;;;;;19.37;74.80;100031.97;3164725;28;19928;-73
2023/09/06 01:53:29;;;;;;;;;;;;;;;19.36;74.80;100026.81;3171195;28;19931;-72
2023/09/06 01:55:02;;;;;;;;;;;;;;;19.36;74.78;100034.75;3171307;28;20073;-70
2023/09/06 01:56:33;;;;;;;;;;;;;;;19.37;74.83;100031.13;3171600;28;19985;-71
2023/09/06 01:58:05;;;;;;;;;;;;;;;19.38;74.66;100035.47;3171357;28;19928;-70
2023/09/06 01:59:36;;;;;;;;;;;;;;;19.40;74.67;100034.34;3164703;28;19931;-70
2023/09/06 02:01:07;;;;;;;;;;;;;;;19.42;74.61;100035.09;3166339;28;20002;-71
2023/09/06 02:02:39;;;;;;;;;;;;;;;19.43;74.37;100039.44;3171260;28;19924;-70
2023/09/06 02:04:11;;;;;;;;;;;;;;;19.45;74.26;100045.41;3171948;28;20006;-71
2023/09/06 02:05:42;;;;;;;;;;;;;;;19.49;74.31;100048.66;3165689;28;20474;-71
2023/09/06 02:07:14;;;;;;;;;;;;;;;19.50;74.27;100042.44;3170701;28;19981;-71
2023/09/06 02:08:45;;;;;;;;;;;;;;;19.50;74.07;100042.44;3171166;28;20459;-71
2023/09/06 02:10:18;;;;;;;;;;;;;;;19.47;74.15;100040.88;3159722;28;19943;-71
2023/09/06 02:11:50;;;;;;;;;;;;;;;19.45;74.36;100040.13;3170834;28;19928;-71
2023/09/06 02:13:20;;;;;;;;;;;;;;;19.45;74.16;100041.94;3165763;28;19924;-71
2023/09/06 02:14:52;;;;;;;;;;;;;;;19.47;74.08;100042.66;3168619;28;19928;-71
2023/09/06 02:16:24;;;;;;;;;;;;;;;19.48;74.00;100044.34;3171552;28;19982;-71
2023/09/06 02:17:55;;;;;;;;;;;;;;;19.51;73.93;100046.75;3170936;28;19953;-71
2023/09/06 02:19:27;;;;;;;;;;;;;;;19.52;74.10;100046.63;3171201;28;19927;-71
2023/09/06 02:20:58;;;;;;;;;;;;;;;19.54;73.82;100046.50;3166214;28;19923;-71
2023/09/06 02:22:29;;;;;;;;;;;;;;;19.55;73.96;100045.53;3171205;28;19977;-71
2023/09/06 02:24:01;;;;;;;;;;;;;;;19.56;73.76;100041.94;3170718;28;19989;-70
2023/09/06 02:25:33;;;;;;;;;;;;;;;19.60;73.58;100050.47;3166620;28;19930;-71
2023/09/06 02:27:06;;;;;;;;;;;;;;;19.61;73.53;100049.50;3170581;28;19924;-71
2023/09/06 02:28:36;;;;;;;;;;;;;;;19.62;73.55;100045.91;3170233;28;19975;-70
2023/09/06 02:30:08;;;;;;;;;;;;;;;19.61;73.52;100044.22;3171215;28;20399;-72
2023/09/06 02:31:39;;;;;;;;;;;;;;;19.58;73.45;100045.31;3170937;28;20503;-73
2023/09/06 02:33:12;;;;;;;;;;;;;;;19.58;73.53;100045.31;3170453;28;19924;-72
2023/09/06 02:34:42;;;;;;;;;;;;;;;19.60;73.71;100045.19;3166117;28;19931;-72
2023/09/06 02:36:14;;;;;;;;;;;;;;;19.61;73.51;100050.34;3159796;28;19977;-72
2023/09/06 02:39:52;;;;;;;;;;;;;;;19.65;73.49;100048.34;3169235;28;20026;-72
2023/09/06 02:41:24;;;;;;;;;;;;;;;19.67;73.30;100051.69;3170074;28;19927;-72
2023/09/06 02:42:56;;;;;;;;;;;;;;;19.67;73.36;100044.63;3170394;28;20807;-71
2023/09/06 02:44:26;;;;;;;;;;;;;;;19.69;73.14;100047.13;3171051;28;19928;-71
2023/09/06 02:46:02;;;;;;;;;;;;;;;19.68;73.16;100043.66;3170474;28;19991;-71
2023/09/06 02:47:34;;;;;;;;;;;;;;;19.69;73.12;100045.31;3170630;28;20478;-73
2023/09/06 02:49:11;;;;;;;;;;;;;;;19.69;73.25;100045.31;3167783;28;19928;-73
2023/09/06 02:50:41;;;;;;;;;;;;;;;19.68;73.36;100041.00;3162152;28;20324;-73
2023/09/06 02:52:20;;;;;;;;;;;;;;;19.66;73.37;100037.63;3101812;28;1885676;-73
2023/09/06 02:53:53;;;;;;;;;;;;;;;19.62;73.61;100032.69;3171310;28;19935;-73
2023/09/06 02:55:23;;;;;;;;;;;;;;;19.58;73.58;100031.25;3163453;28;19935;-73
2023/09/06 02:56:57;;;;;;;;;;;;;;;19.59;73.78;100025.84;3168039;28;20038;-73
2023/09/06 02:58:28;;;;;;;;;;;;;;;19.59;73.93;100022.38;3171243;28;19924;-71
2023/09/06 02:59:59;;;;;;;;;;;;;;;19.59;73.72;100019.72;3171057;28;19931;-72
2023/09/06 03:01:30;;;;;;;;;;;;;;;19.60;73.63;100016.94;3165996;28;19924;-71
2023/09/06 03:03:05;;;;;;;;;;;;;;;19.62;73.66;100022.13;3171165;28;19960;-71
2023/09/06 03:04:37;;;;;;;;;;;;;;;19.60;73.96;100018.75;3167170;28;20007;-70
2023/09/06 03:06:17;;;;;;;;;;;;;;;19.54;73.88;100023.56;3161665;28;19985;-70
2023/09/06 03:07:48;;;;;;;;;;;;;;;19.51;74.17;100025.59;3164277;28;19976;-71
2023/09/06 03:09:28;;;;;;;;;;;;;;;19.51;74.19;100038.81;3167701;28;19974;-70
2023/09/06 03:10:59;;;;;;;;;;;;;;;19.50;74.38;100037.97;3163664;28;19924;-71
2023/09/06 03:12:32;;;;;;;;;;;;;;;19.51;74.31;100044.94;3171194;28;19924;-71
2023/09/06 03:14:03;;;;;;;;;;;;;;;19.53;74.10;100039.53;3163075;28;19928;-73
2023/09/06 03:15:35;;;;;;;;;;;;;;;19.55;74.21;100040.25;3170874;28;19932;-76
2023/09/06 03:17:08;;;;;;;;;;;;;;;19.57;74.21;100042.78;3171009;28;19924;-76
2023/09/06 03:18:40;;;;;;;;;;;;;;;19.56;74.26;100041.94;3166525;28;19924;-76
2023/09/06 03:20:19;;;;;;;;;;;;;;;19.56;73.98;100039.31;3169168;28;20712;-75
2023/09/06 03:21:52;;;;;;;;;;;;;;;19.52;74.21;100048.41;3153977;28;19988;-72
2023/09/06 03:23:24;;;;;;;;;;;;;;;19.51;74.26;100049.38;3170344;28;19927;-73
2023/09/06 03:24:57;;;;;;;;;;;;;;;19.50;74.41;100055.63;3170623;28;19923;-73
2023/09/06 03:26:27;;;;;;;;;;;;;;;19.50;74.50;100053.81;3171262;28;20369;-73
2023/09/06 03:28:01;;;;;;;;;;;;;;;19.49;74.58;100051.28;3170767;28;19966;-73
2023/09/06 03:29:32;;;;;;;;;;;;;;;19.46;74.67;100052.41;3170492;28;19935;-73
2023/09/06 03:31:03;;;;;;;;;;;;;;;19.45;74.75;100063.06;3170878;28;19928;-73
2023/09/06 03:32:34;;;;;;;;;;;;;;;19.45;74.68;100065.72;3170446;28;19963;-72
2023/09/06 03:34:05;;;;;;;;;;;;;;;19.45;74.70;100060.44;3166483;28;19957;-71
2023/09/06 03:35:37;;;;;;;;;;;;;;;19.44;74.87;100064.88;3164417;28;20298;-72
2023/09/06 03:37:08;;;;;;;;;;;;;;;19.44;74.91;100070.16;3164404;28;20407;-72
2023/09/06 03:38:40;;;;;;;;;;;;;;;19.43;74.89;100065.84;3170712;28;19930;-72
2023/09/06 03:40:34;;;;;;;;;;;;;;;19.40;74.93;100068.69;3170740;28;19997;-72
2023/09/06 03:42:08;;;;;;;;;;;;;;;19.41;75.17;100072.19;3170925;28;19932;-72
2023/09/06 03:43:40;;;;;;;;;;;;;;;19.39;75.16;100074.13;3170981;28;19924;-72
2023/09/06 03:45:19;;;;;;;;;;;;;;;19.39;75.11;100071.47;3170298;28;19924;-72
2023/09/06 03:46:51;;;;;;;;;;;;;;;19.37;75.10;100071.56;3170726;28;20010;-71
2023/09/06 03:48:24;;;;;;;;;;;;;;;19.35;75.40;100064.75;3165878;28;19986;-71
2023/09/06 03:49:54;;;;;;;;;;;;;;;19.34;75.55;100069.16;3169716;28;20100;-69
2023/09/06 03:51:26;;;;;;;;;;;;;;;19.36;75.41;100066.44;3161907;28;20057;-71
2023/09/06 03:52:57;;;;;;;;;;;;;;;19.36;75.21;100069.06;3170077;28;20022;-70
2023/09/06 03:54:29;;;;;;;;;;;;;;;19.39;75.10;100060.91;3170258;28;19931;-70
2023/09/06 03:56:00;;;;;;;;;;;;;;;19.40;75.24;100062.56;3170717;28;20392;-70
2023/09/06 03:57:32;;;;;;;;;;;;;;;19.39;75.33;100066.19;3170712;28;19924;-71
2023/09/06 03:59:08;;;;;;;;;;;;;;;19.39;75.26;100068.84;3170784;28;19924;-70
2023/09/06 04:00:41;;;;;;;;;;;;;;;19.42;75.39;100065.94;3145362;28;19924;-71
2023/09/06 04:02:13;;;;;;;;;;;;;;;19.44;75.27;100074.59;3166596;28;19924;-70
2023/09/06 04:03:44;;;;;;;;;;;;;;;19.46;75.07;100068.25;3169788;28;19931;-70
2023/09/06 04:05:16;;;;;;;;;;;;;;;19.47;74.95;100069.09;3167052;28;19931;-71
2023/09/06 04:06:46;;;;;;;;;;;;;;;19.48;75.04;100066.31;3168370;28;20232;-71
2023/09/06 04:08:18;;;;;;;;;;;;;;;19.49;75.10;100067.13;3170085;28;19970;-70
2023/09/06 04:09:56;;;;;;;;;;;;;;;19.45;75.09;100066.53;3163273;28;20002;-72
2023/09/06 04:11:27;;;;;;;;;;;;;;;19.42;75.49;100065.94;3166329;28;20289;-73
2023/09/06 04:12:58;;;;;;;;;;;;;;;19.42;75.38;100068.59;3167864;28;20301;-73
2023/09/06 04:14:34;;;;;;;;;;;;;;;19.41;75.46;100073.03;3164864;28;20053;-73
2023/09/06 04:16:05;;;;;;;;;;;;;;;19.39;75.45;100066.19;3170791;28;19927;-73
2023/09/06 04:17:38;;;;;;;;;;;;;;;19.37;75.79;100070.75;3160385;28;20066;-73
2023/09/06 04:19:08;;;;;;;;;;;;;;;19.37;75.93;100073.38;3163477;28;19955;-74
2023/09/06 04:20:44;;;;;;;;;;;;;;;19.38;75.73;100072.44;3167904;28;19931;-73
2023/09/06 04:22:15;;;;;;;;;;;;;;;19.37;75.84;100070.75;3170582;28;19931;-73
2023/09/06 04:23:48;;;;;;;;;;;;;;;19.39;75.65;100074.94;3170585;28;20344;-73
2023/09/06 04:25:20;;;;;;;;;;;;;;;19.42;75.64;100079.16;3170032;28;20361;-73
2023/09/06 04:26:51;;;;;;;;;;;;;;;19.43;75.66;100071.13;3170188;28;20014;-73
2023/09/06 04:28:25;;;;;;;;;;;;;;;19.43;75.48;100079.06;3170289;28;19923;-73
2023/09/06 04:29:58;;;;;;;;;;;;;;;19.45;75.72;100084.19;3170233;28;19928;-72
2023/09/06 04:31:30;;;;;;;;;;;;;;;19.45;75.70;100078.91;3166429;28;19958;-72
2023/09/06 04:33:00;;;;;;;;;;;;;;;19.46;75.58;100083.22;3170231;28;19923;-72
2023/09/06 04:34:32;;;;;;;;;;;;;;;19.50;75.45;100076.75;3170234;28;20025;-72
2023/09/06 04:36:03;;;;;;;;;;;;;;;19.51;75.43;100084.56;3158543;28;19924;-71
2023/09/06 04:37:38;;;;;;;;;;;;;;;19.54;75.33;100080.84;3168574;28;19928;-71
2023/09/06 04:39:09;;;;;;;;;;;;;;;19.56;75.21;100089.50;3170314;28;19923;-71
2023/09/06 04:40:42;;;;;;;;;;;;;;;19.58;75.21;100084.94;3170225;28;19928;-72
2023/09/06 04:42:14;;;;;;;;;;;;;;;19.61;74.88;100086.47;3169970;28;19923;-71
2023/09/06 04:43:46;;;;;;;;;;;;;;;19.62;74.92;100083.72;3169853;28;19924;-73
2023/09/06 04:45:17;;;;;;;;;;;;;;;19.62;75.12;100083.72;3170172;28;19934;-73
2023/09/06 04:46:49;;;;;;;;;;;;;;;19.63;75.07;100077.47;3166003;28;20430;-72
2023/09/06 04:48:23;;;;;;;;;;;;;;;19.64;74.88;100076.53;3164545;28;19930;-72
2023/09/06 04:49:55;;;;;;;;;;;;;;;19.67;74.99;100088.66;3169836;28;19924;-74
2023/09/06 04:51:27;;;;;;;;;;;;;;;19.69;74.69;100092.03;3164499;28;19977;-70
2023/09/06 04:52:59;;;;;;;;;;;;;;;19.72;74.68;100086.50;3169262;28;19931;-69
2023/09/06 04:54:30;;;;;;;;;;;;;;;19.74;74.72;100088.06;3169236;28;19930;-75
2023/09/06 04:56:04;;;;;;;;;;;;;;;19.77;74.39;100084.34;3169193;28;19924;-73
2023/09/06 04:57:36;;;;;;;;;;;;;;;19.80;74.35;100096.50;3169457;28;20026;-75
2023/09/06 04:59:08;;;;;;;;;;;;;;;19.84;74.28;100092.63;3161709;28;19932;-78
2023/09/06 05:00:44;;;;;;;;;;;;;;;19.86;74.07;100090.72;3157364;28;20290;-78
2023/09/06 05:02:16;;;;;;;;;;;;;;;19.90;74.19;100100.06;3161284;28;19928;-74
2023/09/06 05:03:48;;;;;;;;;;;;;;;19.92;73.92;100092.88;3163152;28;19932;-75
2023/09/06 05:05:18;;;;;;;;;;;;;;;19.95;73.95;100095.25;3157572;28;19985;-76
2023/09/06 05:06:50;;;;;;;;;;;;;;;19.96;73.97;100092.47;3157145;28;20526;-76
2023/09/06 05:08:22;;;;;;;;;;;;;;;19.99;73.84;100099.34;3162893;28;19923;-73
2023/09/06 05:09:57;;;;;;;;;;;;;;;19.99;73.90;100097.56;3166779;28;19924;-68
2023/09/06 05:11:27;;;;;;;;;;;;;;;19.99;73.94;100099.34;3169206;28;19923;-69
2023/09/06 05:12:59;;;;;;;;;;;;;;;19.99;73.96;100105.50;3166330;28;19955;-73
2023/09/06 05:14:29;;;;;;;;;;;;;;;19.99;73.76;100107.25;3158877;28;19924;-80
2023/09/06 05:16:03;;;;;;;;;;;;;;;20.00;73.88;100108.97;3162978;28;19924;-77
2023/09/06 05:17:33;;;;;;;;;;;;;;;19.98;73.73;100114.34;3167376;28;20449;-73
2023/09/06 05:19:05;;;;;;;;;;;;;;;19.97;73.90;100114.50;3169686;28;19931;-72
2023/09/06 05:20:37;;;;;;;;;;;;;;;19.96;74.08;100113.63;3164656;28;19924;-74
2023/09/06 05:22:09;;;;;;;;;;;;;;;19.97;74.15;100111.84;3162465;28;19984;-76
2023/09/06 05:23:39;;;;;;;;;;;;;;;20.00;74.10;100120.38;3169614;28;19931;-72
2023/09/06 05:25:11;;;;;;;;;;;;;;;20.03;73.86;100121.94;3165185;28;19950;-71
2023/09/06 05:26:43;;;;;;;;;;;;;;;20.07;73.98;100126.00;3165409;28;19924;-69
2023/09/06 05:28:15;;;;;;;;;;;;;;;20.11;73.92;100130.06;3169958;28;19928;-73
2023/09/06 05:29:49;;;;;;;;;;;;;;;20.16;73.58;100135.84;3157750;28;19935;-73
2023/09/06 05:31:21;;;;;;;;;;;;;;;20.20;73.58;100131.16;3157601;28;19924;-73
2023/09/06 05:32:54;;;;;;;;;;;;;;;20.21;73.83;100130.19;3157571;28;20393;-70
2023/09/06 05:34:25;;;;;;;;;;;;;;;20.20;73.58;100129.38;3169094;28;19946;-71
2023/09/06 05:35:56;;;;;;;;;;;;;;;20.18;73.66;100130.44;3162432;28;19928;-79
2023/09/06 05:37:27;;;;;;;;;;;;;;;20.19;73.59;100143.53;3167610;28;19927;-79
2023/09/06 05:38:58;;;;;;;;;;;;;;;20.23;73.69;100138.84;3169738;28;20103;-76
2023/09/06 05:40:30;;;;;;;;;;;;;;;20.23;73.67;100137.06;3169919;28;19934;-75
2023/09/06 05:42:02;;;;;;;;;;;;;;;20.22;73.74;100143.28;3170156;28;20289;-72
2023/09/06 05:43:33;;;;;;;;;;;;;;;20.20;73.89;100137.31;3166936;28;19924;-74
2023/09/06 05:45:05;;;;;;;;;;;;;;;20.21;73.93;100138.97;3164404;28;19924;-73
2023/09/06 05:46:37;;;;;;;;;;;;;;;20.21;73.81;100132.84;3168384;28;19934;-69
2023/09/06 05:48:08;;;;;;;;;;;;;;;20.22;73.78;100134.53;3172063;28;20050;-67
2023/09/06 05:49:40;;;;;;;;;;;;;;;20.23;73.93;100131.75;3171439;28;20014;-69
2023/09/06 05:51:12;;;;;;;;;;;;;;;20.26;73.88;100135.09;3164151;28;19931;-69
2023/09/06 05:52:44;;;;;;;;;;;;;;;20.28;73.67;100143.78;3164611;28;20369;-74
2023/09/06 05:54:14;;;;;;;;;;;;;;;20.28;73.74;100146.41;3172119;28;20269;-74
2023/09/06 05:55:46;;;;;;;;;;;;;;;20.27;73.46;100145.56;3161025;28;19930;-73
2023/09/06 05:57:18;;;;;;;;;;;;;;;20.28;73.71;100146.41;3163040;28;20380;-70
2023/09/06 05:58:49;;;;;;;;;;;;;;;20.29;73.77;100153.38;3171916;28;19928;-68
2023/09/06 06:00:22;;;;;;;;;;;;;;;20.31;73.61;100151.44;3171251;28;19931;-73
2023/09/06 06:01:54;;;;;;;;;;;;;;;20.30;73.59;100160.38;3149735;28;19950;-77
2023/09/06 06:03:26;;;;;;;;;;;;;;;20.25;73.73;100163.38;3164984;28;19924;-77
2023/09/06 06:04:56;;;;;;;;;;;;;;;20.21;73.91;100168.06;3170637;28;19927;-72
2023/09/06 06:06:28;;;;;;;;;;;;;;;20.16;74.06;100167.56;3162525;28;19924;-72
2023/09/06 06:07:58;;;;;;;;;;;;;;;20.12;74.31;100171.44;3170595;28;19928;-72
2023/09/06 06:09:30;;;;;;;;;;;;;;;20.09;74.35;100170.84;3167921;28;20420;-73
2023/09/06 06:11:01;;;;;;;;;;;;;;;20.08;74.54;100175.25;3159201;28;19924;-72
2023/09/06 06:12:33;;;;;;;;;;;;;;;20.04;74.42;100171.19;3172245;28;19974;-72
2023/09/06 06:14:04;;;;;;;;;;;;;;;20.05;74.37;100169.38;3159806;28;19935;-72
2023/09/06 06:15:35;;;;;;;;;;;;;;;20.02;74.50;100175.75;3174833;28;19946;-71
2023/09/06 06:17:09;;;;;;;;;;;;;;;20.00;74.61;100185.63;3163599;28;20105;-79
2023/09/06 06:18:40;;;;;;;;;;;;;;;20.01;74.84;100171.44;3168628;28;19928;-76
2023/09/06 06:20:11;;;;;;;;;;;;;;;20.03;74.53;100188.03;3168666;28;20562;-73
2023/09/06 06:21:43;;;;;;;;;;;;;;;20.09;74.69;100184.06;3159756;28;19934;-72
2023/09/06 06:23:13;;;;;;;;;;;;;;;20.11;74.40;100188.25;3166372;28;19947;-67
2023/09/06 06:24:45;;;;;;;;;;;;;;;20.10;74.42;100189.22;3163112;28;19935;-73
2023/09/06 06:26:19;;;;;;;;;;;;;;;20.09;74.56;100190.19;3169591;28;20361;-74
2023/09/06 06:27:51;;;;;;;;;;;;;;;20.08;74.58;100198.22;3171587;28;19931;-68
2023/09/06 06:29:22;;;;;;;;;;;;;;;20.08;74.59;100195.59;3162729;28;20012;-73
2023/09/06 06:30:54;;;;;;;;;;;;;;;20.09;74.62;100200.75;3167468;28;19947;-77
2023/09/06 06:32:26;;;;;;;;;;;;;;;20.10;74.60;100199.78;3171680;28;20289;-72
2023/09/06 06:36:22;;;;;;;;;;;;;;;20.15;74.55;100195.00;3148021;28;19928;-72
2023/09/06 06:37:54;;;;;;;;;;;;;;;20.19;74.51;100198.22;3171733;28;19924;-72
2023/09/06 06:39:26;;;;;;;;;;;;;;;20.22;74.36;100190.88;3171056;28;19931;-71
2023/09/06 06:40:57;;;;;;;;;;;;;;;20.28;74.24;100207.25;3160318;28;19935;-67
2023/09/06 06:42:28;;;;;;;;;;;;;;;20.32;73.91;100198.09;3160472;28;20029;-69
2023/09/06 06:43:59;;;;;;;;;;;;;;;20.35;73.97;100198.72;3171384;28;20393;-74
2023/09/06 06:45:30;;;;;;;;;;;;;;;20.40;73.89;100200.97;3171414;28;19947;-72
2023/09/06 06:47:03;;;;;;;;;;;;;;;20.41;73.78;100207.97;3171708;28;19927;-72
2023/09/06 06:48:35;;;;;;;;;;;;;;;20.43;73.84;100201.56;3171321;28;20105;-73
2023/09/06 06:50:07;;;;;;;;;;;;;;;20.47;73.72;100212.75;3169152;28;19953;-80
2023/09/06 06:51:38;;;;;;;;;;;;;;;20.52;73.56;100201.78;3160140;28;19956;-73
2023/09/06 06:53:11;;;;;;;;;;;;;;;20.55;73.49;100205.06;3158584;28;20480;-74
2023/09/06 06:54:41;;;;;;;;;;;;;;;20.60;73.51;100205.53;3166704;28;19959;-74
2023/09/06 06:56:14;;;;;;;;;;;;;;;20.62;73.46;100208.91;3170222;28;20392;-73
2023/09/06 06:57:45;;;;;;;;;;;;;;;20.64;73.40;100203.47;3171474;28;20019;-74
2023/09/06 06:59:17;;;;;;;;;;;;;;;20.64;73.37;100212.25;3155189;28;19928;-74
2023/09/06 07:00:48;;;;;;;;;;;;;;;20.65;73.36;100215.75;3149091;28;20011;-74
2023/09/06 07:02:20;;;;;;;;;;;;;;;20.67;73.33;100219.97;3155015;28;19931;-74
2023/09/06 07:03:52;;;;;;;;;;;;;;;20.70;73.21;100215.38;3170223;28;19938;-74
2023/09/06 07:05:23;;;;;;;;;;;;;;;20.74;73.11;100215.03;3169394;28;19931;-74
2023/09/06 07:06:54;;;;;;;;;;;;;;;20.80;73.03;100208.38;3155485;28;19925;-74
2023/09/06 07:08:26;;;;;;;;;;;;;;;20.84;73.08;100207.16;3171465;28;19976;-74
2023/09/06 07:09:57;;;;;;;;;;;;;;;20.91;72.90;100213.63;3163138;28;20022;-74
2023/09/06 07:11:28;;;;;;;;;;;;;;;20.97;72.44;100207.00;3171800;28;19949;-74
2023/09/06 07:13:00;;;;;;;;;;;;;;;20.99;72.38;100211.19;3168168;28;19976;-73
2023/09/06 07:14:30;;;;;;;;;;;;;;;21.01;72.51;100206.63;3169865;28;20026;-74
2023/09/06 07:16:03;;;;;;;;;;;;;;;21.02;72.02;100204.81;3171514;28;19944;-74
2023/09/06 07:17:34;;;;;;;;;;;;;;;21.00;72.30;100209.38;3171237;28;19924;-74
2023/09/06 07:19:06;;;;;;;;;;;;;;;21.01;72.04;100200.50;3171342;28;19935;-74
2023/09/06 07:20:38;;;;;;;;;;;;;;;21.01;71.92;100206.63;3164774;28;19928;-73
2023/09/06 07:22:08;;;;;;;;;;;;;;;20.99;71.74;100200.59;3166731;28;20265;-74
2023/09/06 07:23:40;;;;;;;;;;;;;;;20.99;71.98;100205.91;3170762;28;19931;-73
2023/09/06 07:25:13;;;;;;;;;;;;;;;21.00;71.88;100204.94;3171054;28;19924;-74
2023/09/06 07:26:43;;;;;;;;;;;;;;;21.00;71.59;100204.94;3170752;28;20472;-74
2023/09/06 07:28:15;;;;;;;;;;;;;;;21.01;71.54;100206.63;3162589;28;19958;-74
2023/09/06 07:29:45;;;;;;;;;;;;;;;21.04;71.75;100202.88;3171488;28;20000;-74
2023/09/06 07:31:17;;;;;;;;;;;;;;;21.07;71.38;100206.13;3171144;28;20010;-74
2023/09/06 07:32:48;;;;;;;;;;;;;;;21.07;71.51;100200.81;3170911;28;19966;-73
2023/09/06 07:34:21;;;;;;;;;;;;;;;21.10;71.51;100200.56;3171500;28;19959;-74
2023/09/06 07:35:52;;;;;;;;;;;;;;;21.14;71.51;100203.78;3162352;28;19935;-74
2023/09/06 07:37:23;;;;;;;;;;;;;;;21.16;71.18;100201.88;3167057;28;20324;-73
2023/09/06 07:38:55;;;;;;;;;;;;;;;21.20;71.14;100200.63;3171210;28;19991;-74
2023/09/06 07:40:26;;;;;;;;;;;;;;;21.22;71.06;100200.53;3171336;28;19924;-74
2023/09/06 07:41:57;;;;;;;;;;;;;;;21.22;70.82;100200.53;3170927;28;19931;-74
2023/09/06 07:43:29;;;;;;;;;;;;;;;21.22;70.90;100208.47;3166565;28;20283;-74
2023/09/06 07:45:01;;;;;;;;;;;;;;;21.24;70.89;100210.03;3171105;28;19930;-74
2023/09/06 07:46:34;;;;;;;;;;;;;;;21.21;70.88;100204.13;3170664;28;19927;-74
2023/09/06 07:48:04;;;;;;;;;;;;;;;21.19;70.58;100211.38;3165380;28;20018;-74
2023/09/06 07:49:37;;;;;;;;;;;;;;;21.19;70.74;100208.72;3171124;28;19923;-74
2023/09/06 07:51:08;;;;;;;;;;;;;;;21.16;70.60;100209.81;3161993;28;19939;-74
2023/09/06 07:52:40;;;;;;;;;;;;;;;21.14;70.90;100207.28;3171066;28;20323;-74
2023/09/06 07:54:10;;;;;;;;;;;;;;;21.12;70.72;100211.03;3170983;28;19967;-74
2023/09/06 07:55:44;;;;;;;;;;;;;;;21.10;70.91;100211.16;3170933;28;19934;-74
2023/09/06 07:57:14;;;;;;;;;;;;;;;21.13;70.66;100213.56;3149383;28;19973;-74
2023/09/06 07:58:46;;;;;;;;;;;;;;;21.16;70.57;100212.47;3169936;28;19924;-74